Terminal Aerodrome Forecast
Issued by NWS

Home | Current Version | Previous Version | Text Only | Print | Product List | Glossary On
Versions: 1 2 3 4 5 6 7 8 9 10 11 12 13 14 15 16 17 18 19 20 21 22 23 24 25 26 27 28 29 30 31 32 33 34
000
FTUS43 KDMX 290520
TAFOTM
TAF
KOTM 290520Z 2906/3006 15007KT P6SM SCT025 BKN120
     FM291000 17009KT 5SM BR BKN060
     FM291500 19009KT P6SM BKN035
     FM292000 19010KT P6SM VCSH BKN040
     FM300400 24006KT P6SM BKN060=

USA.gov is the U.S. government's official web portal to all federal, state and local government web resources and services.